createdAt,value
2022-09-07T00:01:55.046Z,20.41
2022-09-07T00:03:59.902Z,20.39
2022-09-07T00:06:09.931Z,20.35
2022-09-07T00:08:16.032Z,20.31
2022-09-07T00:10:21.087Z,20.29
2022-09-07T00:12:25.863Z,20.29
2022-09-07T00:14:30.667Z,20.28
2022-09-07T00:16:38.587Z,20.27
2022-09-07T00:18:46.097Z,20.29
2022-09-07T00:20:59.513Z,20.28
2022-09-07T00:23:04.180Z,20.25
2022-09-07T00:25:10.324Z,20.20
2022-09-07T00:27:15.019Z,20.17
2022-09-07T00:29:19.737Z,20.15
2022-09-07T00:31:24.747Z,20.16
2022-09-07T00:33:30.230Z,20.16
2022-09-07T00:35:38.907Z,20.16
2022-09-07T00:37:43.618Z,20.15
2022-09-07T00:39:48.399Z,20.14
2022-09-07T00:41:53.123Z,20.11
2022-09-07T00:44:19.051Z,20.07
2022-09-07T00:46:25.972Z,20.03
2022-09-07T00:48:34.877Z,20.04
2022-09-07T00:50:44.178Z,20.03
2022-09-07T00:52:52.262Z,20.01
2022-09-07T00:55:01.952Z,20.01
2022-09-07T00:57:07.440Z,19.98
2022-09-07T00:59:14.378Z,19.96
2022-09-07T01:01:19.221Z,19.95
2022-09-07T01:03:27.370Z,19.96
2022-09-07T01:05:37.537Z,19.96
2022-09-07T01:07:43.223Z,19.96
2022-09-07T01:09:48.563Z,19.94
2022-09-07T01:11:57.464Z,19.95
2022-09-07T01:14:04.080Z,19.93
2022-09-07T01:16:16.551Z,19.92
2022-09-07T01:18:33.139Z,19.89
2022-09-07T01:20:55.630Z,19.88
2022-09-07T01:23:30.875Z,19.85
2022-09-07T01:25:46.358Z,19.82
2022-09-07T01:28:15.891Z,19.77
2022-09-07T01:30:22.400Z,19.74
2022-09-07T01:32:39.668Z,19.71
2022-09-07T01:34:49.629Z,19.68
2022-09-07T01:37:05.211Z,19.66
2022-09-07T01:39:09.867Z,19.64
2022-09-07T01:41:22.781Z,19.64
2022-09-07T01:43:39.461Z,19.64
2022-09-07T01:45:45.795Z,19.61
2022-09-07T01:47:54.044Z,19.58
2022-09-07T01:50:05.851Z,19.55
2022-09-07T01:52:17.470Z,19.52
2022-09-07T01:54:27.148Z,19.51
2022-09-07T01:56:36.082Z,19.50
2022-09-07T01:58:44.917Z,19.48
2022-09-07T02:00:55.114Z,19.47
2022-09-07T02:03:05.707Z,19.43
2022-09-07T02:05:13.544Z,19.42
2022-09-07T02:07:24.594Z,19.41
2022-09-07T02:09:32.417Z,19.41
2022-09-07T02:11:40.481Z,19.37
2022-09-07T02:13:51.397Z,19.34
2022-09-07T02:15:59.846Z,19.31
2022-09-07T02:18:08.646Z,19.30
2022-09-07T02:20:17.523Z,19.28
2022-09-07T02:22:26.030Z,19.27
2022-09-07T02:24:34.876Z,19.27
2022-09-07T02:26:41.642Z,19.26
2022-09-07T02:28:46.364Z,19.24
2022-09-07T02:30:51.050Z,19.21
2022-09-07T02:32:58.817Z,19.19
2022-09-07T02:35:03.677Z,19.18
2022-09-07T02:37:10.521Z,19.16
2022-09-07T02:39:15.443Z,19.10
2022-09-07T02:41:32.731Z,19.07
2022-09-07T02:43:37.539Z,19.06
2022-09-07T02:46:02.148Z,19.01
2022-09-07T02:48:17.510Z,19.00
2022-09-07T02:50:37.381Z,18.98
2022-09-07T02:52:51.918Z,18.97
2022-09-07T02:55:09.034Z,18.95
2022-09-07T02:57:25.991Z,18.92
2022-09-07T02:59:40.881Z,18.88
2022-09-07T03:01:58.546Z,18.87
2022-09-07T03:04:13.612Z,18.85
2022-09-07T03:06:26.555Z,18.86
2022-09-07T03:08:36.734Z,18.84
2022-09-07T03:10:42.952Z,18.84
2022-09-07T03:12:49.512Z,18.86
2022-09-07T03:14:54.278Z,18.86
2022-09-07T03:16:59.952Z,18.88
2022-09-07T03:19:05.181Z,18.86
2022-09-07T03:21:09.856Z,18.84
2022-09-07T03:23:14.745Z,18.79
2022-09-07T03:25:20.158Z,18.74
2022-09-07T03:27:25.012Z,18.69
2022-09-07T03:29:29.679Z,18.69
2022-09-07T03:31:35.335Z,18.69
2022-09-07T03:33:40.016Z,18.71
2022-09-07T03:35:45.283Z,18.71
2022-09-07T03:37:50.063Z,18.73
2022-09-07T03:39:55.040Z,18.76
2022-09-07T03:41:59.784Z,18.75
2022-09-07T03:44:06.098Z,18.74
2022-09-07T03:46:11.071Z,18.69
2022-09-07T03:48:15.762Z,18.66
2022-09-07T03:50:20.537Z,18.65
2022-09-07T03:52:25.316Z,18.64
2022-09-07T03:54:29.970Z,18.61
2022-09-07T03:56:34.601Z,18.57
2022-09-07T03:58:39.693Z,18.49
2022-09-07T04:00:44.369Z,18.44
2022-09-07T04:02:49.062Z,18.41
2022-09-07T04:04:53.787Z,18.40
2022-09-07T04:06:58.415Z,18.39
2022-09-07T04:09:06.025Z,18.40
2022-09-07T04:11:13.849Z,18.41
2022-09-07T04:13:18.513Z,18.40
2022-09-07T04:15:23.220Z,18.37
2022-09-07T04:17:31.011Z,18.36
2022-09-07T04:19:35.963Z,18.37
2022-09-07T04:21:40.745Z,18.38
2022-09-07T04:23:45.973Z,18.40
2022-09-07T04:25:52.339Z,18.42
2022-09-07T04:27:58.778Z,18.44
2022-09-07T04:30:03.653Z,18.43
2022-09-07T04:32:10.486Z,18.40
2022-09-07T04:34:18.584Z,18.41
2022-09-07T04:36:24.050Z,18.45
2022-09-07T04:38:29.644Z,18.49
2022-09-07T04:40:34.736Z,18.51
2022-09-07T04:42:40.164Z,18.50
2022-09-07T04:44:45.046Z,18.47
2022-09-07T04:46:49.791Z,18.45
2022-09-07T04:48:56.412Z,18.46
2022-09-07T04:51:06.442Z,18.50
2022-09-07T04:53:11.158Z,18.52
2022-09-07T04:55:16.361Z,18.53
2022-09-07T04:57:21.222Z,18.58
2022-09-07T04:59:26.356Z,18.62
2022-09-07T05:01:31.552Z,18.66
2022-09-07T05:03:38.675Z,18.68
2022-09-07T05:05:46.376Z,18.69
2022-09-07T05:07:51.044Z,18.71
2022-09-07T05:09:55.809Z,18.71
2022-09-07T05:12:00.646Z,18.73
2022-09-07T05:14:05.869Z,18.77
2022-09-07T05:16:12.522Z,18.76
2022-09-07T05:18:17.326Z,18.80
2022-09-07T05:20:22.190Z,18.86
2022-09-07T05:22:27.015Z,18.92
2022-09-07T05:24:31.949Z,18.89
2022-09-07T05:26:37.748Z,18.88
2022-09-07T05:28:42.666Z,18.92
2022-09-07T05:33:12.076Z,19.03
2022-09-07T05:35:17.378Z,19.07
2022-09-07T05:37:22.105Z,19.11
2022-09-07T05:39:27.565Z,19.14
2022-09-07T05:41:32.465Z,19.16
2022-09-07T05:46:01.929Z,19.23
2022-09-07T05:48:06.618Z,19.26
2022-09-07T05:50:11.845Z,19.30
2022-09-07T05:52:16.587Z,19.26
2022-09-07T05:54:21.302Z,19.23
2022-09-07T05:56:26.028Z,19.22
2022-09-07T05:58:31.305Z,19.25
2022-09-07T06:00:36.153Z,19.28
2022-09-07T06:02:40.930Z,19.29
2022-09-07T06:04:45.662Z,19.34
2022-09-07T06:07:17.771Z,19.35
2022-09-07T06:09:15.215Z,19.37
2022-09-07T06:11:22.166Z,19.39
2022-09-07T06:13:26.873Z,19.43
2022-09-07T06:15:33.414Z,19.46
2022-09-07T06:17:38.119Z,19.51
2022-09-07T06:19:42.826Z,19.54
2022-09-07T06:21:47.589Z,19.58
2022-09-07T06:23:52.909Z,19.61
2022-09-07T06:25:57.689Z,19.62
2022-09-07T06:28:02.573Z,19.62
2022-09-07T06:30:10.105Z,19.62
2022-09-07T06:34:39.396Z,19.69
2022-09-07T06:36:44.109Z,19.69
2022-09-07T06:38:49.817Z,19.74
2022-09-07T06:43:19.329Z,19.83
2022-09-07T06:45:23.981Z,19.87
2022-09-07T06:47:28.748Z,19.90
2022-09-07T06:49:33.525Z,19.96
2022-09-07T06:51:38.494Z,20.04
2022-09-07T06:53:44.934Z,20.13
2022-09-07T06:55:50.438Z,20.15
2022-09-07T06:57:55.155Z,20.20
2022-09-07T06:59:59.839Z,20.25
2022-09-07T07:02:04.987Z,20.27
2022-09-07T07:04:09.649Z,20.32
2022-09-07T07:06:14.941Z,20.38
2022-09-07T07:08:19.755Z,20.42
2022-09-07T07:10:25.186Z,20.46
2022-09-07T07:14:35.032Z,20.58
2022-09-07T07:16:41.041Z,20.60
2022-09-07T07:18:46.023Z,20.64
2022-09-07T07:20:50.714Z,20.69
2022-09-07T07:22:55.566Z,20.76
2022-09-07T07:25:00.297Z,20.79
2022-09-07T07:27:05.237Z,20.85
2022-09-07T07:29:09.962Z,20.91
2022-09-07T07:31:15.511Z,20.99
2022-09-07T07:33:20.223Z,21.02
2022-09-07T07:35:25.249Z,21.07
2022-09-07T07:37:29.982Z,21.14
2022-09-07T07:42:03.057Z,21.19
2022-09-07T07:44:10.369Z,21.22
2022-09-07T07:46:16.676Z,21.26
2022-09-07T07:48:21.403Z,21.33
2022-09-07T07:50:34.107Z,21.27
2022-09-07T07:55:42.931Z,21.26
2022-09-07T07:57:31.769Z,21.20
2022-09-07T07:59:36.745Z,21.18
2022-09-07T08:01:41.560Z,21.23
2022-09-07T08:03:46.882Z,21.31
2022-09-07T08:05:51.788Z,21.36
2022-09-07T08:07:56.456Z,21.37
2022-09-07T08:10:01.189Z,21.44
2022-09-07T08:12:06.084Z,21.53
2022-09-07T08:14:10.834Z,21.62
2022-09-07T08:16:16.349Z,21.71
2022-09-07T08:18:20.976Z,21.77
2022-09-07T08:20:25.756Z,21.85
2022-09-07T08:22:34.289Z,21.90
2022-09-07T08:24:39.916Z,21.95
2022-09-07T08:26:44.632Z,22.00
2022-09-07T08:28:49.308Z,22.05
2022-09-07T08:30:54.065Z,22.10
2022-09-07T08:32:58.682Z,22.16
2022-09-07T08:35:03.552Z,22.20
2022-09-07T08:37:08.280Z,22.25
2022-09-07T08:39:13.275Z,22.26
2022-09-07T08:41:42.445Z,22.30
2022-09-07T08:43:53.143Z,22.39
2022-09-07T08:46:03.118Z,22.49
2022-09-07T08:48:09.783Z,22.58
2022-09-07T08:50:21.779Z,22.69
2022-09-07T08:52:29.237Z,22.77
2022-09-07T08:54:34.532Z,22.80
2022-09-07T08:57:20.428Z,22.87
2022-09-07T08:59:17.921Z,22.96
2022-09-07T09:01:31.268Z,22.95
2022-09-07T09:06:12.033Z,23.06
2022-09-07T09:08:32.037Z,23.04
2022-09-07T09:10:48.333Z,23.09
2022-09-07T09:13:10.083Z,23.14
2022-09-07T09:15:21.527Z,23.19
2022-09-07T09:17:32.430Z,23.26
2022-09-07T09:20:01.735Z,23.34
2022-09-07T09:22:13.325Z,23.41
2022-09-07T09:24:19.973Z,23.50
2022-09-07T09:26:27.273Z,23.57
2022-09-07T09:28:32.538Z,23.64
2022-09-07T09:30:37.414Z,23.69
2022-09-07T09:32:43.582Z,23.74
2022-09-07T09:35:03.565Z,23.80
2022-09-07T09:37:12.890Z,23.84
2022-09-07T09:39:32.177Z,23.90
2022-09-07T09:41:39.075Z,23.94
2022-09-07T09:43:51.828Z,23.94
2022-09-07T09:46:13.333Z,23.98
2022-09-07T09:48:21.451Z,24.08
2022-09-07T09:52:56.137Z,24.15
2022-09-07T09:55:33.962Z,24.15
2022-09-07T10:00:27.519Z,24.31
2022-09-07T10:04:59.591Z,24.49
2022-09-07T10:07:18.097Z,24.58
2022-09-07T10:09:26.321Z,24.66
2022-09-07T10:14:19.880Z,24.83
2022-09-07T10:16:38.923Z,24.83
2022-09-07T10:18:59.527Z,24.78
2022-09-07T10:21:25.353Z,24.79
2022-09-07T10:23:30.067Z,24.79
2022-09-07T10:25:37.451Z,24.83
2022-09-07T10:27:43.130Z,24.90
2022-09-07T10:29:47.987Z,24.97
2022-09-07T10:32:20.056Z,25.05
2022-09-07T10:34:38.368Z,25.20
2022-09-07T10:36:53.089Z,25.29
2022-09-07T10:39:01.528Z,25.32
2022-09-07T10:41:09.748Z,25.37
2022-09-07T10:43:23.643Z,25.46
2022-09-07T10:45:38.801Z,25.56
2022-09-07T10:47:53.863Z,25.65
2022-09-07T10:50:23.525Z,25.72
2022-09-07T10:52:36.911Z,25.72
2022-09-07T10:54:51.216Z,25.78
2022-09-07T10:57:05.554Z,25.84
2022-09-07T11:00:07.496Z,25.87
2022-09-07T11:02:04.551Z,25.77
2022-09-07T11:04:32.936Z,25.71
2022-09-07T11:06:41.679Z,25.62
2022-09-07T11:09:18.765Z,25.58
2022-09-07T11:14:13.112Z,25.69
2022-09-07T11:19:35.043Z,25.67
2022-09-07T11:23:54.646Z,25.73
2022-09-07T11:26:10.521Z,25.81
2022-09-07T11:28:21.166Z,25.91
2022-09-07T11:30:30.903Z,25.98
2022-09-07T11:32:42.475Z,26.06
2022-09-07T11:34:52.113Z,26.19
2022-09-07T11:37:02.860Z,26.33
2022-09-07T11:39:15.233Z,26.50
2022-09-07T11:41:29.570Z,26.66
2022-09-07T11:43:40.185Z,26.78
2022-09-07T11:45:48.868Z,26.90
2022-09-07T11:47:59.740Z,26.97
2022-09-07T11:50:05.451Z,27.13
2022-09-07T11:52:21.075Z,27.26
2022-09-07T11:54:38.518Z,27.43
2022-09-07T11:56:46.877Z,27.53
2022-09-07T11:59:10.052Z,27.59
2022-09-07T12:01:25.158Z,27.63
2022-09-07T12:03:46.088Z,27.65
2022-09-07T12:06:14.907Z,27.70
2022-09-07T12:08:37.122Z,27.71
2022-09-07T12:11:08.143Z,27.70
2022-09-07T12:13:47.621Z,27.69
2022-09-07T12:16:00.366Z,27.69
2022-09-07T12:18:16.554Z,27.71
2022-09-07T12:20:25.668Z,27.78
2022-09-07T12:22:30.389Z,27.88
2022-09-07T12:24:45.518Z,27.96
2022-09-07T12:26:53.137Z,28.00
2022-09-07T12:29:20.527Z,27.98
2022-09-07T12:32:52.805Z,27.89
2022-09-07T12:34:46.171Z,27.79
2022-09-07T12:36:51.674Z,27.79
2022-09-07T12:39:23.290Z,27.85
2022-09-07T12:41:43.408Z,27.93
2022-09-07T12:44:04.997Z,27.92
2022-09-07T12:46:20.318Z,27.93
2022-09-07T12:48:39.823Z,27.92
2022-09-07T12:50:55.744Z,27.93
2022-09-07T12:53:28.434Z,27.94
2022-09-07T12:58:31.491Z,28.02
2022-09-07T13:00:49.824Z,28.18
2022-09-07T13:03:54.070Z,28.25
2022-09-07T13:06:05.022Z,28.37
2022-09-07T13:08:40.476Z,28.42
2022-09-07T13:10:45.878Z,28.46
2022-09-07T13:12:53.582Z,28.50
2022-09-07T13:14:59.389Z,28.47
2022-09-07T13:17:28.955Z,28.41
2022-09-07T13:20:20.297Z,28.39
2022-09-07T13:23:10.185Z,28.43
2022-09-07T13:25:44.198Z,28.49
2022-09-07T13:27:55.538Z,28.48
2022-09-07T13:30:02.799Z,28.42
2022-09-07T13:32:17.660Z,28.38
2022-09-07T13:34:48.343Z,28.32
2022-09-07T13:36:53.207Z,28.27
2022-09-07T13:38:58.474Z,28.25
2022-09-07T13:41:07.177Z,28.28
2022-09-07T13:43:19.314Z,28.22
2022-09-07T13:45:36.634Z,28.13
2022-09-07T13:47:54.080Z,28.06
2022-09-07T13:50:09.513Z,28.12
2022-09-07T13:52:19.053Z,28.15
2022-09-07T13:54:35.160Z,28.15
2022-09-07T13:56:51.675Z,28.18
2022-09-07T13:58:56.750Z,28.22
2022-09-07T14:01:04.558Z,28.24
2022-09-07T14:03:16.794Z,28.28
2022-09-07T14:05:22.691Z,28.35
2022-09-07T14:07:29.108Z,28.40
2022-09-07T14:09:34.938Z,28.45
2022-09-07T14:11:43.996Z,28.55
2022-09-07T14:14:08.224Z,28.71
2022-09-07T14:16:12.971Z,28.88
2022-09-07T14:18:22.445Z,28.93
2022-09-07T14:20:27.988Z,29.03
2022-09-07T14:22:38.113Z,29.12
2022-09-07T14:24:47.386Z,29.12
2022-09-07T14:26:52.377Z,29.05
2022-09-07T14:28:58.346Z,29.07
2022-09-07T14:31:03.717Z,29.13
2022-09-07T14:33:15.563Z,29.17
2022-09-07T14:35:23.426Z,29.17
2022-09-07T14:37:29.580Z,29.18
2022-09-07T14:39:38.587Z,29.19
2022-09-07T14:41:45.208Z,29.21
2022-09-07T14:43:57.923Z,29.24
2022-09-07T14:46:17.052Z,29.27
2022-09-07T14:48:31.430Z,29.24
2022-09-07T14:50:39.160Z,29.23
2022-09-07T14:53:34.224Z,29.33
2022-09-07T14:55:32.965Z,29.41
2022-09-07T14:57:37.682Z,29.42
2022-09-07T14:59:44.782Z,29.50
2022-09-07T15:01:49.461Z,29.58
2022-09-07T15:03:56.719Z,29.68
2022-09-07T15:06:02.439Z,29.76
2022-09-07T15:08:18.762Z,29.80
2022-09-07T15:10:41.164Z,29.80
2022-09-07T15:12:46.703Z,29.72
2022-09-07T15:14:51.522Z,29.72
2022-09-07T15:19:33.288Z,29.75
2022-09-07T15:21:38.020Z,29.75
2022-09-07T15:23:42.751Z,29.74
2022-09-07T15:25:52.217Z,29.69
2022-09-07T15:27:58.838Z,29.66
2022-09-07T15:30:03.733Z,29.62
2022-09-07T15:32:10.785Z,29.59
2022-09-07T15:34:16.905Z,29.55
2022-09-07T15:36:21.538Z,29.48
2022-09-07T15:41:20.624Z,29.36
2022-09-07T15:43:21.499Z,29.31
2022-09-07T15:45:27.899Z,29.26
2022-09-07T15:47:51.511Z,29.18
2022-09-07T15:49:57.251Z,29.10
2022-09-07T15:52:05.790Z,29.05
2022-09-07T15:54:17.373Z,28.99
2022-09-07T15:56:22.208Z,28.92
2022-09-07T15:58:26.976Z,28.85
2022-09-07T16:00:32.143Z,28.71
2022-09-07T16:05:01.495Z,28.31
2022-09-07T16:07:06.591Z,28.22
2022-09-07T16:09:11.360Z,28.13
2022-09-07T16:11:18.968Z,28.04
2022-09-07T16:13:24.646Z,27.99
2022-09-07T16:15:29.405Z,27.95
2022-09-07T16:17:36.872Z,27.91
2022-09-07T16:19:42.114Z,27.84
2022-09-07T16:21:46.913Z,27.79
2022-09-07T16:23:53.242Z,27.70
2022-09-07T16:25:59.624Z,27.59
2022-09-07T16:28:05.787Z,27.50
2022-09-07T16:30:13.476Z,27.40
2022-09-07T16:34:43.102Z,27.33
2022-09-07T16:36:48.170Z,27.33
2022-09-07T16:38:59.400Z,27.31
2022-09-07T16:41:04.644Z,27.26
2022-09-07T16:43:10.026Z,27.23
2022-09-07T16:47:39.890Z,27.17
2022-09-07T16:49:44.744Z,27.16
2022-09-07T16:51:49.846Z,27.16
2022-09-07T16:53:56.119Z,27.14
2022-09-07T16:56:05.298Z,27.09
2022-09-07T17:00:36.189Z,27.01
2022-09-07T17:02:41.017Z,26.99
2022-09-07T17:04:45.924Z,26.97
2022-09-07T17:06:50.814Z,26.96
2022-09-07T17:08:56.345Z,26.92
2022-09-07T17:11:02.677Z,26.88
2022-09-07T17:13:09.338Z,26.81
2022-09-07T17:15:14.961Z,26.73
2022-09-07T17:17:19.908Z,26.63
2022-09-07T17:19:30.704Z,26.55
2022-09-07T17:21:38.187Z,26.46
2022-09-07T17:23:51.096Z,26.37
2022-09-07T17:26:06.903Z,26.31
2022-09-07T17:28:11.729Z,26.24
2022-09-07T17:30:16.778Z,26.18
2022-09-07T17:32:24.653Z,26.14
2022-09-07T17:34:30.232Z,26.09
2022-09-07T17:36:35.294Z,26.03
2022-09-07T17:41:10.954Z,25.93
2022-09-07T17:45:40.451Z,25.85
2022-09-07T17:47:45.311Z,25.77
2022-09-07T17:49:50.311Z,25.70
2022-09-07T17:51:55.610Z,25.65
2022-09-07T17:54:02.104Z,25.58
2022-09-07T17:56:08.315Z,25.53
2022-09-07T17:58:13.213Z,25.46
2022-09-07T18:00:18.580Z,25.43
2022-09-07T18:02:23.805Z,25.42
2022-09-07T18:04:29.266Z,25.39
2022-09-07T18:06:34.464Z,25.37
2022-09-07T18:08:40.328Z,25.34
2022-09-07T18:13:10.423Z,25.31
2022-09-07T18:15:16.135Z,25.28
2022-09-07T18:17:21.080Z,25.26
2022-09-07T18:19:26.264Z,25.22
2022-09-07T18:21:33.608Z,25.19
2022-09-07T18:23:39.129Z,25.14
2022-09-07T18:25:44.076Z,25.10
2022-09-07T18:29:03.079Z,25.07
2022-09-07T18:30:15.058Z,25.07
2022-09-07T18:32:20.442Z,25.07
2022-09-07T18:34:26.099Z,25.05
2022-09-07T18:36:31.363Z,25.06
2022-09-07T18:38:36.981Z,25.05
2022-09-07T18:40:42.054Z,25.06
2022-09-07T18:42:47.475Z,25.07
2022-09-07T18:47:23.349Z,25.06
2022-09-07T18:49:32.786Z,25.03
2022-09-07T18:54:02.997Z,24.96
2022-09-07T18:56:13.258Z,24.93
2022-09-07T18:58:18.573Z,24.88
2022-09-07T19:00:23.870Z,24.85
2022-09-07T19:02:29.111Z,24.80
2022-09-07T19:06:59.690Z,24.70
2022-09-07T19:09:05.973Z,24.62
2022-09-07T19:11:13.391Z,24.55
2022-09-07T19:13:19.181Z,24.48
2022-09-07T19:15:24.461Z,24.42
2022-09-07T19:17:29.884Z,24.38
2022-09-07T19:19:35.298Z,24.35
2022-09-07T19:21:41.966Z,24.31
2022-09-07T19:23:55.097Z,24.26
2022-09-07T19:26:02.271Z,24.15
2022-09-07T19:28:07.646Z,24.08
2022-09-07T19:30:13.951Z,24.01
2022-09-07T19:32:19.113Z,23.94
2022-09-07T19:34:24.215Z,23.87
2022-09-07T19:36:31.967Z,23.79
2022-09-07T19:38:37.293Z,23.73
2022-09-07T19:40:42.168Z,23.69
2022-09-07T19:42:47.937Z,23.64
2022-09-07T19:44:53.880Z,23.59
2022-09-07T19:46:59.174Z,23.53
2022-09-07T19:49:04.281Z,23.45
2022-09-07T19:51:11.237Z,23.37
2022-09-07T19:53:16.761Z,23.31
2022-09-07T19:55:22.019Z,23.27
2022-09-07T19:57:27.163Z,23.22
2022-09-07T19:59:32.305Z,23.16
2022-09-07T20:01:37.902Z,23.10
2022-09-07T20:03:44.245Z,23.04
2022-09-07T20:05:53.247Z,23.00
2022-09-07T20:07:58.873Z,22.97
2022-09-07T20:10:04.199Z,22.95
2022-09-07T20:12:10.773Z,22.95
2022-09-07T20:14:16.916Z,22.94
2022-09-07T20:16:23.136Z,22.93
2022-09-07T20:18:28.822Z,22.90
2022-09-07T20:20:33.623Z,22.85
2022-09-07T20:22:38.662Z,22.77
2022-09-07T20:24:43.703Z,22.67
2022-09-07T20:26:48.501Z,22.59
2022-09-07T20:29:11.075Z,22.51
2022-09-07T20:31:21.912Z,22.45
2022-09-07T20:33:26.898Z,22.40
2022-09-07T20:35:32.791Z,22.38
2022-09-07T20:37:40.691Z,22.34
2022-09-07T20:39:45.540Z,22.29
2022-09-07T20:41:50.342Z,22.24
2022-09-07T20:43:55.565Z,22.19
2022-09-07T20:46:00.920Z,22.16
2022-09-07T20:48:05.865Z,22.13
2022-09-07T20:50:11.426Z,22.12
2022-09-07T20:52:16.175Z,22.08
2022-09-07T20:54:20.915Z,22.06
2022-09-07T20:56:27.535Z,22.02
2022-09-07T20:58:32.926Z,22.00
2022-09-07T21:00:37.782Z,21.97
2022-09-07T21:02:42.625Z,21.95
2022-09-07T21:04:47.370Z,21.92
2022-09-07T21:06:52.100Z,21.90
2022-09-07T21:08:57.418Z,21.89
2022-09-07T21:11:07.235Z,21.87
2022-09-07T21:13:12.334Z,21.83
2022-09-07T21:15:17.486Z,21.79
2022-09-07T21:17:22.416Z,21.76
2022-09-07T21:19:27.245Z,21.73
2022-09-07T21:21:39.400Z,21.71
2022-09-07T21:23:44.318Z,21.69
2022-09-07T21:25:49.096Z,21.68
2022-09-07T21:27:53.875Z,21.69
2022-09-07T21:29:58.624Z,21.69
2022-09-07T21:32:03.666Z,21.68
2022-09-07T21:34:09.406Z,21.66
2022-09-07T21:36:15.015Z,21.65
2022-09-07T21:38:19.719Z,21.62
2022-09-07T21:40:24.522Z,21.59
2022-09-07T21:42:29.316Z,21.56
2022-09-07T21:44:34.061Z,21.53
2022-09-07T21:46:38.922Z,21.49
2022-09-07T21:48:44.412Z,21.47
2022-09-07T21:50:55.897Z,21.44
2022-09-07T21:53:00.686Z,21.41
2022-09-07T21:55:06.424Z,21.39
2022-09-07T21:57:11.236Z,21.37
2022-09-07T21:59:16.019Z,21.36
2022-09-07T22:01:21.872Z,21.36
2022-09-07T22:03:27.291Z,21.37
2022-09-07T22:05:32.041Z,21.39
2022-09-07T22:07:36.823Z,21.41
2022-09-07T22:09:41.550Z,21.42
2022-09-07T22:11:46.432Z,21.42
2022-09-07T22:13:53.344Z,21.40
2022-09-07T22:15:58.112Z,21.35
2022-09-07T22:18:03.231Z,21.32
2022-09-07T22:20:10.053Z,21.29
2022-09-07T22:22:14.891Z,21.25
2022-09-07T22:24:19.557Z,21.21
2022-09-07T22:26:27.503Z,21.16
2022-09-07T22:28:32.955Z,21.14
2022-09-07T22:30:37.709Z,21.12
2022-09-07T22:32:47.045Z,21.10
2022-09-07T22:34:51.723Z,21.10
2022-09-07T22:36:56.479Z,21.09
2022-09-07T22:39:04.014Z,21.10
2022-09-07T22:41:11.010Z,21.08
2022-09-07T22:43:15.690Z,21.08
2022-09-07T22:45:20.481Z,21.08
2022-09-07T22:47:25.680Z,21.08
2022-09-07T22:49:30.562Z,21.08
2022-09-07T22:51:35.302Z,21.06
2022-09-07T22:53:42.243Z,21.03
2022-09-07T22:55:46.960Z,20.98
2022-09-07T22:57:51.664Z,20.91
2022-09-07T22:59:56.507Z,20.85
2022-09-07T23:02:01.149Z,20.80
2022-09-07T23:04:09.300Z,20.74
2022-09-07T23:06:22.898Z,20.70
2022-09-07T23:08:28.171Z,20.67
2022-09-07T23:10:35.430Z,20.64
2022-09-07T23:12:40.392Z,20.59
2022-09-07T23:14:45.182Z,20.56
2022-09-07T23:16:50.354Z,20.54
2022-09-07T23:18:55.922Z,20.52
2022-09-07T23:21:01.402Z,20.48
2022-09-07T23:23:06.318Z,20.45
2022-09-07T23:25:11.227Z,20.41
2022-09-07T23:27:16.032Z,20.38
2022-09-07T23:29:20.739Z,20.35
2022-09-07T23:31:26.882Z,20.34
2022-09-07T23:33:32.068Z,20.34
2022-09-07T23:35:36.756Z,20.32
2022-09-07T23:37:41.411Z,20.32
2022-09-07T23:39:46.193Z,20.32
2022-09-07T23:41:50.980Z,20.34
2022-09-07T23:43:56.043Z,20.33
2022-09-07T23:46:00.777Z,20.34
2022-09-07T23:48:05.588Z,20.38
2022-09-07T23:50:11.595Z,20.40
2022-09-07T23:52:16.194Z,20.45
2022-09-07T23:54:20.844Z,20.47
2022-09-07T23:56:26.094Z,20.52
2022-09-07T23:58:30.837Z,20.57
